Time;durP1;ratioP1;P1;durP2;ratioP2;P2;SDS_P1;SDS_P2;PMS_P1;PMS_P2;Temp;Humidity;BMP_temperature;BMP_pressure;BME280_temperature;BME280_humidity;BME280_pressure;Samples;Min_cycle;Max_cycle;Signal;HPM_P1;HPM_P2
2021/05/11 00:00:36;;;;;;;5.80;5.30;;;20.60;54.50;;;;;;5005349;28;20641;-47
2021/05/11 00:03:02;;;;;;;8.23;7.53;;;20.60;54.60;;;;;;5002183;28;20240;-44
2021/05/11 00:05:30;;;;;;;8.30;7.53;;;20.60;54.60;;;;;;5006914;28;20476;-45
2021/05/11 00:07:56;;;;;;;7.30;6.53;;;20.60;54.70;;;;;;5001668;28;20507;-43
2021/05/11 00:10:23;;;;;;;7.83;7.03;;;20.50;54.70;;;;;;5003945;28;20531;-44
2021/05/11 00:12:49;;;;;;;6.43;5.90;;;20.50;54.90;;;;;;4997825;28;20496;-44
2021/05/11 00:15:15;;;;;;;7.00;6.40;;;20.50;55.00;;;;;;5005397;28;22245;-44
2021/05/11 00:17:42;;;;;;;8.23;7.30;;;20.50;55.20;;;;;;5003378;28;20199;-44
2021/05/11 00:20:08;;;;;;;7.00;6.40;;;20.40;55.20;;;;;;5002936;28;20448;-46
2021/05/11 00:22:33;;;;;;;7.47;6.70;;;20.40;55.30;;;;;;5001642;28;20518;-44
2021/05/11 00:24:59;;;;;;;7.87;7.17;;;20.30;55.20;;;;;;5006886;28;20832;-45
2021/05/11 00:27:25;;;;;;;7.13;6.53;;;20.30;55.30;;;;;;5005092;28;20205;-44
2021/05/11 00:29:50;;;;;;;8.00;7.40;;;20.30;55.40;;;;;;5003161;28;20190;-43
2021/05/11 00:32:16;;;;;;;9.47;8.57;;;20.30;55.40;;;;;;5001464;28;20229;-43
2021/05/11 00:34:42;;;;;;;9.43;8.53;;;20.30;56.10;;;;;;5002748;28;20209;-44
2021/05/11 00:37:07;;;;;;;9.13;8.33;;;20.30;55.50;;;;;;5004957;28;20599;-43
2021/05/11 00:39:34;;;;;;;10.20;9.20;;;20.20;55.60;;;;;;5002314;28;20622;-44
2021/05/11 00:41:59;;;;;;;11.03;10.03;;;20.20;55.60;;;;;;5002391;28;20683;-44
2021/05/11 00:44:27;;;;;;;9.77;8.87;;;20.20;55.70;;;;;;5004160;28;20552;-43
2021/05/11 00:46:56;;;;;;;10.20;9.20;;;20.20;55.80;;;;;;5004671;28;20190;-43
2021/05/11 00:49:23;;;;;;;12.07;10.87;;;20.20;55.80;;;;;;5000321;28;20940;-43
2021/05/11 00:51:50;;;;;;;11.30;10.20;;;20.20;56.00;;;;;;5003022;28;20489;-44
2021/05/11 00:54:16;;;;;;;11.37;10.27;;;20.10;56.10;;;;;;5006274;28;20437;-43
2021/05/11 00:56:43;;;;;;;11.97;10.87;;;20.10;56.10;;;;;;5003281;28;20441;-44
2021/05/11 00:59:14;;;;;;;12.10;10.90;;;20.10;56.20;;;;;;5004059;28;20445;-44
2021/05/11 01:01:40;;;;;;;14.00;11.67;;;20.00;56.20;;;;;;5005293;28;20475;-44
2021/05/11 01:04:06;;;;;;;13.37;12.17;;;20.00;56.20;;;;;;5007856;28;20436;-44
2021/05/11 01:06:31;;;;;;;11.90;10.70;;;20.10;56.30;;;;;;5002113;28;20281;-46
2021/05/11 01:08:57;;;;;;;14.30;12.83;;;20.10;56.40;;;;;;5005368;28;20285;-43
2021/05/11 01:11:23;;;;;;;12.20;11.10;;;20.00;56.40;;;;;;4997470;28;20637;-45
2021/05/11 01:13:48;;;;;;;14.03;12.73;;;20.00;56.50;;;;;;5010253;28;20297;-44
2021/05/11 01:16:14;;;;;;;13.10;11.80;;;20.00;56.50;;;;;;5002328;28;20703;-44
2021/05/11 01:18:40;;;;;;;12.00;10.70;;;20.00;56.50;;;;;;5004590;28;20190;-44
2021/05/11 01:24:05;;;;;;;12.20;11.00;;;20.00;56.40;;;;;;5003393;28;20676;-43
2021/05/11 01:26:44;;;;;;;13.23;11.87;;;20.00;56.50;;;;;;5002184;28;20460;-43
2021/05/11 01:29:23;;;;;;;12.90;11.60;;;20.00;56.60;;;;;;5002550;28;21016;-43
2021/05/11 02:23:07;;;;;;;17.13;14.90;;;19.60;58.10;;;;;;5001782;28;20499;-47
2021/05/11 02:25:33;;;;;;;18.67;15.77;;;19.60;58.10;;;;;;5000697;28;20441;-44
2021/05/11 02:27:59;;;;;;;18.90;15.30;;;19.60;58.10;;;;;;5004981;28;20634;-45
2021/05/11 02:30:24;;;;;;;18.43;16.37;;;19.60;58.20;;;;;;5005217;28;20200;-43
2021/05/11 02:32:51;;;;;;;19.50;16.17;;;19.60;58.20;;;;;;5006449;28;20279;-47
2021/05/11 02:35:18;;;;;;;17.07;14.23;;;19.60;58.10;;;;;;5006794;28;20248;-44
2021/05/11 02:37:45;;;;;;;18.23;15.70;;;19.70;58.00;;;;;;5006737;28;20477;-47
2021/05/11 02:40:12;;;;;;;21.23;17.13;;;19.70;57.90;;;;;;5006590;28;20449;-45
2021/05/11 02:42:40;;;;;;;20.03;15.63;;;19.70;58.00;;;;;;5007498;28;20448;-47
2021/05/11 02:45:10;;;;;;;19.60;15.93;;;19.60;58.00;;;;;;5001242;28;20856;-48
2021/05/11 02:47:47;;;;;;;21.23;17.63;;;19.70;58.10;;;;;;5005262;28;20481;-44
2021/05/11 02:50:14;;;;;;;21.77;16.87;;;19.70;58.00;;;;;;5009094;28;20448;-45
2021/05/11 02:52:40;;;;;;;18.07;14.90;;;19.60;58.30;;;;;;5003800;28;20495;-43
2021/05/11 02:55:06;;;;;;;19.10;14.97;;;19.50;58.50;;;;;;5000554;28;20441;-43
2021/05/11 02:57:31;;;;;;;16.90;13.30;;;19.30;58.80;;;;;;5006460;28;20280;-47
2021/05/11 02:59:57;;;;;;;17.37;13.33;;;19.10;59.30;;;;;;5005155;28;20201;-43
2021/05/11 03:02:22;;;;;;;17.67;13.37;;;19.10;59.50;;;;;;5006115;28;20236;-46
2021/05/11 03:04:48;;;;;;;18.90;14.00;;;19.20;59.20;;;;;;5003791;28;20207;-44
2021/05/11 03:07:14;;;;;;;17.90;12.97;;;19.20;59.30;;;;;;4992988;28;20899;-45
2021/05/11 03:09:39;;;;;;;17.10;13.53;;;19.20;59.30;;;;;;5006223;28;20193;-45
2021/05/11 03:12:05;;;;;;;14.77;12.47;;;19.20;59.30;;;;;;5001852;28;20240;-44
2021/05/11 03:14:33;;;;;;;15.90;13.23;;;18.90;60.00;;;;;;5002755;28;20225;-44
2021/05/11 03:16:59;;;;;;;16.00;12.30;;;18.90;60.20;;;;;;5003320;28;20252;-43
2021/05/11 03:19:24;;;;;;;17.47;13.30;;;18.90;60.10;;;;;;5000918;28;20440;-43
2021/05/11 03:21:50;;;;;;;16.80;12.10;;;18.90;60.00;;;;;;5008596;28;20270;-43
2021/05/11 03:24:16;;;;;;;15.67;12.10;;;19.00;59.80;;;;;;5006180;28;21005;-45
2021/05/11 03:26:42;;;;;;;15.90;11.90;;;19.20;59.50;;;;;;5003305;28;20205;-45
2021/05/11 03:29:08;;;;;;;14.47;12.10;;;19.20;59.20;;;;;;5005756;28;20449;-43
2021/05/11 03:31:34;;;;;;;16.90;12.40;;;19.20;59.20;;;;;;5006954;28;20495;-44
2021/05/11 03:33:59;;;;;;;15.27;11.97;;;19.30;59.00;;;;;;5007355;28;20199;-43
2021/05/11 03:36:25;;;;;;;13.83;12.10;;;19.20;59.00;;;;;;5002955;28;20877;-46
2021/05/11 03:38:52;;;;;;;17.80;12.50;;;19.30;59.00;;;;;;5002691;28;20241;-43
2021/05/11 03:41:22;;;;;;;16.00;12.40;;;19.40;58.90;;;;;;5010852;28;20608;-44
2021/05/11 03:43:55;;;;;;;16.37;12.43;;;19.30;59.00;;;;;;5004141;28;20456;-44
2021/05/11 03:46:21;;;;;;;19.40;13.40;;;19.20;59.10;;;;;;5002992;28;21014;-43
2021/05/11 03:48:47;;;;;;;15.40;12.63;;;19.30;59.10;;;;;;5003089;28;20456;-44
2021/05/11 03:51:13;;;;;;;17.50;12.70;;;19.30;58.90;;;;;;5000792;28;20210;-44
2021/05/11 03:53:39;;;;;;;17.50;13.37;;;19.30;58.90;;;;;;5007122;28;20205;-43
2021/05/11 03:56:05;;;;;;;17.30;12.60;;;19.30;58.90;;;;;;5005298;28;20444;-45
2021/05/11 03:58:30;;;;;;;16.80;13.13;;;19.30;58.90;;;;;;5003995;28;20196;-43
2021/05/11 04:00:56;;;;;;;18.60;13.27;;;19.30;59.00;;;;;;5003056;28;20895;-45
2021/05/11 04:03:21;;;;;;;16.20;12.63;;;19.20;59.30;;;;;;5000199;28;20191;-44
2021/05/11 04:05:49;;;;;;;17.53;13.43;;;19.20;59.20;;;;;;5006214;28;21181;-44
2021/05/11 04:16:22;;;;;;;17.20;14.23;;;19.40;58.70;;;;;;5004866;28;20801;-46
2021/05/11 04:18:47;;;;;;;20.47;13.97;;;19.40;58.80;;;;;;5003796;28;20239;-44
2021/05/11 04:21:13;;;;;;;19.80;14.00;;;19.40;58.80;;;;;;5004393;28;20824;-43
2021/05/11 04:23:39;;;;;;;20.20;13.60;;;19.40;58.70;;;;;;5001100;28;20236;-44
2021/05/11 04:26:05;;;;;;;18.23;13.70;;;19.50;58.80;;;;;;5004766;28;20280;-44
2021/05/11 04:28:30;;;;;;;18.67;15.10;;;19.50;58.90;;;;;;5001252;28;20553;-45
2021/05/11 04:30:56;;;;;;;18.33;13.33;;;19.50;58.60;;;;;;5008258;28;20233;-46
2021/05/11 04:33:22;;;;;;;17.17;13.70;;;19.50;58.50;;;;;;5002509;28;20194;-45
2021/05/11 04:35:47;;;;;;;16.80;12.77;;;19.50;58.50;;;;;;5004501;28;20240;-43
2021/05/11 04:38:13;;;;;;;17.17;12.80;;;19.50;58.50;;;;;;5002908;28;20325;-44
2021/05/11 04:40:38;;;;;;;15.97;12.90;;;19.50;58.60;;;;;;5002517;28;20190;-47
2021/05/11 04:43:05;;;;;;;15.40;11.90;;;19.50;58.40;;;;;;5003674;28;20222;-46
2021/05/11 04:45:33;;;;;;;14.10;11.67;;;19.50;58.60;;;;;;5006498;28;20280;-44
2021/05/11 04:47:58;;;;;;;13.60;10.97;;;19.50;58.50;;;;;;5010418;28;20933;-48
2021/05/11 04:50:25;;;;;;;16.30;12.17;;;19.60;58.40;;;;;;5004772;28;20448;-44
2021/05/11 04:52:51;;;;;;;15.73;12.60;;;19.50;58.30;;;;;;5001884;28;20253;-45
2021/05/11 04:55:18;;;;;;;14.93;12.60;;;19.50;58.30;;;;;;5006533;28;20971;-44
2021/05/11 04:57:44;;;;;;;15.87;12.53;;;19.50;58.20;;;;;;5001538;28;20468;-47
2021/05/11 05:00:12;;;;;;;8.77;4.70;;;19.60;58.30;;;;;;5001821;28;20490;-46
2021/05/11 05:02:39;;;;;;;16.20;8.07;;;19.50;58.80;;;;;;4999261;28;20449;-44
2021/05/11 05:05:05;;;;;;;15.20;12.70;;;19.70;58.40;;;;;;4999374;28;20438;-46
2021/05/11 05:07:31;;;;;;;13.80;10.77;;;20.00;57.40;;;;;;5001196;28;20820;-46
2021/05/11 05:09:57;;;;;;;17.53;12.53;;;20.20;56.80;;;;;;4999230;28;20464;-46
2021/05/11 05:12:22;;;;;;;15.27;12.53;;;20.40;56.30;;;;;;5003578;28;20221;-44
2021/05/11 05:14:48;;;;;;;15.30;13.50;;;20.60;55.90;;;;;;5003283;28;20269;-43
2021/05/11 05:17:14;;;;;;;18.10;13.97;;;20.60;55.70;;;;;;5001177;28;20189;-43
2021/05/11 05:19:39;;;;;;;18.00;11.80;;;20.60;56.00;;;;;;5005328;28;20205;-43
2021/05/11 05:22:07;;;;;;;14.50;11.07;;;20.50;56.10;;;;;;5005152;28;20193;-43
2021/05/11 05:24:36;;;;;;;14.87;12.90;;;20.40;56.30;;;;;;5007178;28;20232;-44
2021/05/11 05:27:12;;;;;;;16.67;13.03;;;20.40;56.40;;;;;;5005764;28;20440;-42
2021/05/11 05:29:37;;;;;;;17.73;12.97;;;20.30;56.50;;;;;;5006650;28;20432;-42
2021/05/11 05:32:03;;;;;;;15.30;12.10;;;20.30;56.60;;;;;;5007192;28;20488;-43
2021/05/11 05:34:29;;;;;;;18.37;13.43;;;20.30;56.70;;;;;;5006897;28;20569;-43
2021/05/11 05:36:54;;;;;;;17.73;13.27;;;20.30;56.80;;;;;;5005686;28;20201;-43
2021/05/11 05:39:27;;;;;;;16.03;13.00;;;20.30;56.90;;;;;;5005042;28;20608;-43
2021/05/11 05:41:52;;;;;;;15.40;12.67;;;20.20;56.90;;;;;;5001052;28;20197;-42
2021/05/11 05:44:18;;;;;;;13.97;10.93;;;20.20;56.80;;;;;;5008244;28;20453;-43
2021/05/11 05:46:43;;;;;;;13.00;10.83;;;20.20;56.90;;;;;;5006784;28;20198;-44
2021/05/11 05:49:09;;;;;;;13.20;10.40;;;20.00;56.80;;;;;;4999018;28;20199;-42
2021/05/11 05:51:35;;;;;;;12.73;10.50;;;20.00;56.90;;;;;;5002729;28;20674;-43
2021/05/11 05:54:00;;;;;;;10.67;9.07;;;20.00;56.90;;;;;;4998247;28;20278;-42
2021/05/11 05:56:26;;;;;;;12.03;10.10;;;20.10;56.90;;;;;;4994321;28;20206;-43
2021/05/11 05:58:52;;;;;;;11.83;9.87;;;20.00;56.80;;;;;;5008774;28;20193;-43
2021/05/11 06:01:17;;;;;;;13.80;10.50;;;20.00;56.80;;;;;;4998728;28;20643;-42
2021/05/11 06:06:10;;;;;;;12.63;9.87;;;20.00;56.80;;;;;;5007930;28;20353;-43
2021/05/11 06:08:37;;;;;;;11.23;9.97;;;20.10;56.80;;;;;;5007441;28;20190;-44
2021/05/11 06:13:42;;;;;;;13.30;11.00;;;20.10;56.90;;;;;;5005355;28;20448;-45
2021/05/11 06:18:53;;;;;;;12.93;11.23;;;20.00;57.00;;;;;;4998567;28;20478;-44
2021/05/11 06:21:18;;;;;;;14.20;10.93;;;19.90;57.10;;;;;;5007423;28;20477;-44
2021/05/11 06:23:44;;;;;;;13.23;10.47;;;19.90;57.10;;;;;;5009028;28;20194;-43
2021/05/11 06:26:12;;;;;;;13.60;11.20;;;19.90;57.10;;;;;;5011129;28;20242;-45
2021/05/11 06:28:40;;;;;;;12.73;10.90;;;20.00;57.10;;;;;;4998518;28;20195;-43
2021/05/11 06:31:06;;;;;;;13.30;10.47;;;19.90;57.10;;;;;;4992161;28;20983;-43
2021/05/11 06:33:31;;;;;;;12.20;10.70;;;19.90;57.80;;;;;;5007239;28;20437;-45
2021/05/11 06:35:57;;;;;;;11.97;10.00;;;19.80;57.40;;;;;;4993009;28;20193;-45
2021/05/11 06:38:23;;;;;;;10.87;9.77;;;19.80;57.40;;;;;;5008208;28;20287;-43
2021/05/11 06:40:48;;;;;;;12.70;10.97;;;19.90;58.00;;;;;;5007568;28;20561;-43
2021/05/11 06:43:18;;;;;;;12.40;10.47;;;20.00;57.40;;;;;;4997421;28;20199;-45
2021/05/11 06:46:12;;;;;;;12.30;10.47;;;20.10;57.20;;;;;;4997815;28;20198;-42
2021/05/11 06:48:51;;;;;;;12.83;9.20;;;20.20;57.00;;;;;;5007313;28;20944;-44
2021/05/11 06:54:02;;;;;;;9.67;8.50;;;20.30;56.80;;;;;;5003906;28;20476;-44
2021/05/11 06:56:29;;;;;;;11.07;9.87;;;20.30;56.70;;;;;;5007106;28;20440;-48
2021/05/11 06:58:55;;;;;;;10.17;9.07;;;20.30;56.70;;;;;;5014546;28;20236;-47
2021/05/11 07:01:21;;;;;;;11.53;9.40;;;20.40;56.60;;;;;;5013011;28;20464;-46
2021/05/11 07:03:48;;;;;;;10.90;8.80;;;20.40;56.50;;;;;;4998017;28;20213;-44
2021/05/11 07:06:15;;;;;;;9.00;7.53;;;20.50;56.40;;;;;;5001733;28;20520;-47
2021/05/11 07:08:43;;;;;;;9.03;8.07;;;20.50;56.40;;;;;;5012084;28;20421;-44
2021/05/11 07:13:48;;;;;;;12.10;10.40;;;20.50;56.20;;;;;;5012087;28;20444;-41
2021/05/11 07:16:13;;;;;;;13.03;8.77;;;20.50;56.20;;;;;;5013751;28;20779;-42
2021/05/11 07:18:39;;;;;;;10.40;8.77;;;20.50;56.10;;;;;;5003744;28;20480;-41
2021/05/11 07:21:04;;;;;;;9.47;8.47;;;20.40;56.20;;;;;;4999046;28;20265;-43
2021/05/11 07:23:30;;;;;;;9.67;8.47;;;20.40;56.40;;;;;;4999616;28;20673;-41
2021/05/11 07:29:03;;;;;;;7.90;7.10;;;20.50;56.10;;;;;;4994245;28;20191;-41
2021/05/11 07:31:26;;;;;;;11.33;8.13;;;20.50;55.90;;;;;;5007802;28;20507;-42
2021/05/11 07:33:54;;;;;;;9.73;8.70;;;20.40;55.80;;;;;;5013450;28;20437;-41
2021/05/11 07:36:20;;;;;;;10.20;8.30;;;20.40;56.00;;;;;;5014105;28;20838;-41
2021/05/11 07:38:46;;;;;;;9.50;8.40;;;20.40;55.80;;;;;;5012606;28;20520;-41
2021/05/11 07:41:13;;;;;;;7.80;7.10;;;20.50;55.90;;;;;;5008826;28;20526;-41
2021/05/11 07:43:41;;;;;;;8.90;8.00;;;20.50;55.70;;;;;;5011811;28;20540;-41
2021/05/11 08:05:03;;;;;;;6.73;6.10;;;20.80;55.40;;;;;;5006524;28;20448;-41
2021/05/11 08:15:46;;;;;;;6.87;6.07;;;21.00;54.80;;;;;;5012895;28;20484;-42
2021/05/11 08:18:28;;;;;;;6.40;5.80;;;21.00;54.80;;;;;;5012418;28;20479;-43
2021/05/11 08:28:48;;;;;;;7.53;6.23;;;21.20;54.20;;;;;;5001687;28;20583;-42
2021/05/11 08:31:13;;;;;;;8.30;7.33;;;21.20;54.00;;;;;;5008703;28;20437;-41
2021/05/11 08:33:39;;;;;;;9.10;7.00;;;21.20;54.10;;;;;;5012815;28;20529;-42
2021/05/11 08:36:05;;;;;;;8.83;8.00;;;21.20;54.20;;;;;;5004398;28;20587;-43
2021/05/11 08:38:30;;;;;;;9.47;8.13;;;21.30;54.10;;;;;;5006461;28;20225;-42
2021/05/11 08:40:57;;;;;;;13.20;7.50;;;21.40;54.00;;;;;;5008528;28;20240;-43
2021/05/11 08:43:32;;;;;;;7.40;6.70;;;21.40;54.00;;;;;;5007314;28;20612;-44
2021/05/11 08:46:03;;;;;;;8.80;7.07;;;21.40;54.20;;;;;;5001368;28;20453;-42
2021/05/11 08:48:30;;;;;;;7.60;6.20;;;21.30;54.10;;;;;;5005408;28;20449;-43
2021/05/11 08:51:10;;;;;;;5.73;5.23;;;21.40;53.90;;;;;;4998837;28;20807;-43
2021/05/11 09:27:22;;;;;;;5.90;5.30;;;22.00;52.60;;;;;;5004004;28;20599;-43
2021/05/11 09:30:42;;;;;;;5.97;5.37;;;22.10;53.40;;;;;;4995717;28;20456;-47
2021/05/11 10:27:14;;;;;;;4.87;4.47;;;22.50;52.30;;;;;;5007142;28;20464;-42
2021/05/11 10:48:29;;;;;;;6.20;5.60;;;22.70;51.20;;;;;;5004737;28;20742;-42
2021/05/11 10:50:59;;;;;;;6.97;6.40;;;22.60;51.00;;;;;;5008596;28;20444;-44
2021/05/11 10:53:46;;;;;;;5.80;5.20;;;22.50;51.30;;;;;;5013482;28;20487;-46
2021/05/11 10:56:44;;;;;;;5.73;5.33;;;22.60;51.50;;;;;;5012392;28;20780;-42
2021/05/11 10:59:13;;;;;;;5.10;4.70;;;22.70;51.00;;;;;;5005362;28;20787;-42
2021/05/11 11:01:41;;;;;;;5.67;5.17;;;22.80;50.60;;;;;;5012785;28;20467;-45
2021/05/11 11:04:14;;;;;;;5.90;5.40;;;22.90;50.70;;;;;;5014156;28;20448;-43
2021/05/11 11:06:58;;;;;;;5.40;4.70;;;23.00;50.50;;;;;;5012176;28;20507;-42
2021/05/11 11:09:28;;;;;;;5.90;5.50;;;23.10;50.60;;;;;;5012789;28;21068;-43
2021/05/11 11:11:54;;;;;;;5.40;4.90;;;23.00;50.50;;;;;;5018760;28;20488;-43
2021/05/11 11:14:20;;;;;;;6.00;5.30;;;23.00;50.20;;;;;;5013837;28;20440;-42
2021/05/11 11:16:47;;;;;;;6.80;5.57;;;23.10;50.20;;;;;;5013130;28;20503;-45
2021/05/11 11:19:16;;;;;;;6.30;5.80;;;23.00;50.30;;;;;;5007559;28;20434;-43
2021/05/11 11:24:48;;;;;;;5.03;4.63;;;22.90;50.70;;;;;;5013089;28;20448;-43
2021/05/11 11:27:13;;;;;;;5.03;4.63;;;23.00;50.60;;;;;;5004302;28;20457;-44
2021/05/11 11:29:40;;;;;;;5.80;5.30;;;23.10;50.40;;;;;;5011613;28;20993;-43
2021/05/11 11:32:06;;;;;;;6.10;5.60;;;23.20;50.10;;;;;;5013473;28;20230;-42
2021/05/11 11:34:33;;;;;;;6.70;5.50;;;23.20;50.10;;;;;;5004284;28;20439;-42
2021/05/11 11:37:02;;;;;;;5.50;5.00;;;23.20;50.30;;;;;;5014982;28;20279;-42
2021/05/11 11:39:35;;;;;;;6.20;5.20;;;23.20;50.60;;;;;;5012092;28;20944;-42
2021/05/11 11:42:04;;;;;;;5.13;4.73;;;23.30;50.20;;;;;;5013729;28;20506;-42
2021/05/11 11:44:35;;;;;;;5.00;4.60;;;23.30;49.30;;;;;;5012148;28;20444;-43
2021/05/11 11:47:08;;;;;;;6.60;6.07;;;23.30;49.00;;;;;;5011916;28;20887;-43
2021/05/11 11:49:39;;;;;;;5.30;4.80;;;23.30;49.20;;;;;;5006794;28;20856;-42
2021/05/11 11:52:11;;;;;;;7.30;6.70;;;23.20;49.70;;;;;;5010024;28;20538;-42
2021/05/11 12:00:23;;;;;;;6.23;5.73;;;23.30;50.00;;;;;;5018698;28;20467;-42
2021/05/11 12:02:54;;;;;;;7.20;6.50;;;23.20;50.10;;;;;;5023273;28;20444;-42
2021/05/11 12:05:21;;;;;;;6.23;5.73;;;23.10;50.30;;;;;;5018780;28;21223;-42
2021/05/11 12:10:22;;;;;;;8.63;7.40;;;23.00;50.50;;;;;;5011733;28;20480;-43
2021/05/11 12:12:48;;;;;;;7.50;6.90;;;23.10;50.20;;;;;;5011093;28;20496;-42
2021/05/11 12:15:19;;;;;;;8.23;7.60;;;23.20;50.20;;;;;;5019744;28;20422;-42
2021/05/11 12:17:58;;;;;;;9.07;8.37;;;23.10;50.20;;;;;;5012711;28;20226;-42
2021/05/11 12:20:27;;;;;;;9.87;8.97;;;23.20;50.40;;;;;;5020858;28;20444;-42
2021/05/11 12:23:06;;;;;;;11.20;9.37;;;23.20;50.40;;;;;;5014505;28;20480;-42
2021/05/11 12:25:31;;;;;;;10.33;9.47;;;23.30;50.80;;;;;;5008088;28;20537;-43
2021/05/11 12:27:57;;;;;;;11.77;10.87;;;23.40;50.30;;;;;;5014229;28;20449;-43
2021/05/11 12:30:41;;;;;;;10.70;9.80;;;23.40;50.60;;;;;;5026170;28;20675;-42
2021/05/11 12:33:12;;;;;;;11.43;10.43;;;23.50;50.00;;;;;;5022630;28;20503;-43
2021/05/11 12:35:42;;;;;;;12.00;11.00;;;23.40;50.10;;;;;;5024645;28;20507;-42
2021/05/11 12:38:24;;;;;;;8.40;7.70;;;23.30;50.00;;;;;;4998885;28;20976;-42
2021/05/11 12:43:56;;;;;;;8.40;7.80;;;23.20;50.60;;;;;;5000175;28;20464;-42
2021/05/11 12:46:32;;;;;;;6.93;6.43;;;23.00;50.80;;;;;;5002620;28;20455;-42
2021/05/11 12:49:02;;;;;;;6.10;5.63;;;23.00;51.00;;;;;;5012135;28;20448;-43
2021/05/11 12:51:39;;;;;;;5.70;5.20;;;22.90;51.00;;;;;;5011594;28;20794;-43
2021/05/11 12:59:33;;;;;;;6.37;5.97;;;23.00;51.00;;;;;;5018248;28;20442;-42
2021/05/11 13:02:24;;;;;;;6.10;5.70;;;22.80;51.10;;;;;;4992527;28;20434;-42
2021/05/11 13:05:05;;;;;;;6.60;6.00;;;22.70;51.40;;;;;;5007860;28;20535;-42
2021/05/11 13:28:27;;;;;;;12.50;11.47;;;22.80;51.70;;;;;;5006773;28;20437;-43
2021/05/11 13:31:11;;;;;;;12.57;11.57;;;22.40;52.70;;;;;;5006767;28;20528;-43
2021/05/11 13:33:48;;;;;;;11.97;10.93;;;22.30;53.40;;;;;;4991667;28;20519;-43
2021/05/11 13:36:13;;;;;;;9.33;8.63;;;22.30;53.60;;;;;;5013188;28;20543;-42
2021/05/11 13:38:39;;;;;;;7.60;7.00;;;22.10;53.90;;;;;;5003432;28;20501;-43
2021/05/11 13:41:05;;;;;;;7.20;6.60;;;21.90;54.30;;;;;;5005128;28;20560;-42
2021/05/11 13:43:30;;;;;;;7.00;6.40;;;21.60;55.30;;;;;;5013498;28;20272;-43
2021/05/11 13:45:56;;;;;;;6.73;5.80;;;21.30;55.50;;;;;;5007189;28;20200;-42
2021/05/11 13:48:41;;;;;;;7.43;5.60;;;21.10;56.40;;;;;;5013717;28;20204;-43
2021/05/11 13:51:15;;;;;;;5.67;5.17;;;20.70;57.50;;;;;;5011620;28;20295;-43
2021/05/11 13:53:43;;;;;;;6.37;5.67;;;20.60;57.70;;;;;;5008717;28;20464;-42
2021/05/11 14:04:09;;;;;;;6.47;5.90;;;20.80;58.10;;;;;;5009267;28;20436;-43
2021/05/11 14:06:34;;;;;;;7.83;6.83;;;20.80;58.10;;;;;;5007402;28;20441;-42
2021/05/11 14:09:01;;;;;;;7.40;6.73;;;20.90;58.10;;;;;;5014521;28;20964;-44
2021/05/11 14:11:27;;;;;;;7.20;6.13;;;20.70;58.60;;;;;;5007794;28;20256;-45
2021/05/11 14:13:53;;;;;;;7.53;6.40;;;20.30;59.00;;;;;;5006914;28;20491;-43
2021/05/11 14:16:18;;;;;;;7.23;6.63;;;20.10;59.80;;;;;;4996306;28;20446;-43
2021/05/11 14:18:44;;;;;;;6.90;6.40;;;20.20;60.00;;;;;;5000850;28;20200;-44
2021/05/11 14:21:10;;;;;;;6.23;5.73;;;20.30;60.10;;;;;;5007855;28;20607;-42
2021/05/11 14:23:35;;;;;;;5.97;5.40;;;20.20;59.80;;;;;;5004795;28;20198;-44
2021/05/11 14:26:01;;;;;;;6.20;5.77;;;20.40;59.40;;;;;;5008109;28;20194;-43
2021/05/11 14:28:27;;;;;;;5.10;4.70;;;20.30;59.60;;;;;;5011523;28;20593;-43
2021/05/11 14:30:53;;;;;;;5.60;5.10;;;20.40;59.40;;;;;;5006218;28;20464;-43
2021/05/11 14:33:19;;;;;;;5.17;4.10;;;20.50;59.40;;;;;;5007332;28;20254;-42
2021/05/11 14:35:44;;;;;;;4.70;4.40;;;20.50;59.50;;;;;;4996830;28;20814;-43
2021/05/11 14:38:10;;;;;;;4.93;3.90;;;20.50;59.50;;;;;;5000413;28;20234;-43
2021/05/11 14:40:36;;;;;;;4.70;4.30;;;20.60;59.50;;;;;;5009077;28;20197;-43
2021/05/11 14:43:02;;;;;;;4.50;4.10;;;20.60;59.70;;;;;;5004265;28;20197;-42
2021/05/11 14:45:27;;;;;;;3.90;3.20;;;20.70;59.30;;;;;;5007657;28;20202;-43
2021/05/11 14:47:54;;;;;;;3.40;3.10;;;20.70;59.20;;;;;;4998558;28;20445;-43
2021/05/11 14:50:21;;;;;;;3.40;2.67;;;20.70;59.20;;;;;;5007899;28;20190;-43
2021/05/11 14:52:50;;;;;;;2.70;2.43;;;20.50;59.00;;;;;;5006597;28;20579;-42
2021/05/11 14:55:18;;;;;;;3.17;2.90;;;20.40;59.40;;;;;;5001439;28;20449;-43
2021/05/11 14:57:45;;;;;;;3.50;2.70;;;20.40;59.90;;;;;;4995852;28;20806;-43
2021/05/11 15:00:11;;;;;;;3.30;2.20;;;20.40;59.80;;;;;;5007073;28;20443;-43
2021/05/11 15:02:37;;;;;;;3.10;2.20;;;20.40;60.10;;;;;;4999149;28;20440;-40
2021/05/11 15:05:03;;;;;;;4.10;2.60;;;20.30;60.10;;;;;;5005266;28;20491;-41
2021/05/11 15:07:29;;;;;;;3.20;2.13;;;20.30;60.30;;;;;;5009573;28;20216;-40
2021/05/11 15:09:54;;;;;;;2.83;2.17;;;20.20;60.10;;;;;;5008930;28;20436;-41
2021/05/11 15:12:20;;;;;;;2.80;1.77;;;20.30;60.60;;;;;;5009017;28;20260;-40
2021/05/11 15:14:46;;;;;;;3.03;2.73;;;20.20;60.60;;;;;;5010423;28;20197;-40
2021/05/11 15:19:58;;;;;;;2.70;1.73;;;20.20;61.00;;;;;;5014020;28;20288;-40
2021/05/11 15:22:25;;;;;;;1.80;1.40;;;20.20;61.30;;;;;;5015569;28;20440;-40
2021/05/11 15:24:51;;;;;;;4.33;1.90;;;20.20;60.90;;;;;;5015122;28;20453;-41
2021/05/11 15:27:17;;;;;;;2.10;1.57;;;20.10;61.10;;;;;;5014037;28;20798;-40
2021/05/11 15:29:43;;;;;;;1.80;1.70;;;20.10;61.80;;;;;;5015713;28;20190;-40
2021/05/11 15:32:39;;;;;;;2.20;2.00;;;20.20;61.90;;;;;;5013164;28;20539;-39
2021/05/11 15:35:16;;;;;;;4.03;2.30;;;20.30;61.70;;;;;;5017743;28;20220;-40
2021/05/11 15:37:42;;;;;;;1.83;1.73;;;20.30;61.70;;;;;;5004717;28;20547;-40
2021/05/11 15:40:13;;;;;;;6.23;2.20;;;20.30;61.90;;;;;;5011277;28;20437;-40
2021/05/11 15:42:39;;;;;;;3.40;2.80;;;20.30;61.90;;;;;;5016068;28;20452;-40
2021/05/11 15:45:06;;;;;;;5.47;2.10;;;20.30;61.90;;;;;;5018720;28;20441;-40
2021/05/11 15:47:32;;;;;;;2.80;1.97;;;20.20;61.80;;;;;;5014268;28;20646;-40
2021/05/11 15:49:58;;;;;;;3.30;1.90;;;20.20;61.80;;;;;;5019888;28;20566;-41
2021/05/11 15:52:24;;;;;;;1.60;1.50;;;20.00;61.90;;;;;;5014571;28;20696;-39
2021/05/11 15:54:50;;;;;;;2.90;2.70;;;20.10;62.00;;;;;;5020512;28;20436;-39
2021/05/11 15:57:17;;;;;;;2.40;2.30;;;20.00;62.10;;;;;;5012438;28;21303;-39
2021/05/11 15:59:43;;;;;;;5.50;4.67;;;19.90;62.40;;;;;;5013165;28;20428;-39
2021/05/11 16:02:10;;;;;;;2.23;2.13;;;19.90;62.60;;;;;;5009559;28;20437;-39
2021/05/11 16:04:36;;;;;;;5.70;2.10;;;19.80;62.70;;;;;;5010831;28;20777;-39
2021/05/11 16:07:02;;;;;;;7.60;2.80;;;19.70;63.20;;;;;;5018865;28;20435;-42
2021/05/11 16:09:28;;;;;;;5.37;2.20;;;19.60;63.20;;;;;;5012680;28;20220;-42
2021/05/11 16:11:54;;;;;;;6.93;1.60;;;19.60;63.50;;;;;;5016329;28;20492;-42
2021/05/11 16:14:19;;;;;;;2.13;1.87;;;19.60;63.70;;;;;;5021620;28;20201;-42
2021/05/11 16:16:45;;;;;;;2.57;2.13;;;19.50;64.00;;;;;;5006141;28;20193;-44
2021/05/11 16:19:11;;;;;;;4.10;2.37;;;19.60;64.10;;;;;;5014053;28;20631;-42
2021/05/11 16:21:37;;;;;;;2.27;2.00;;;19.70;63.90;;;;;;5017303;28;20198;-42
2021/05/11 16:24:03;;;;;;;1.97;1.87;;;19.80;63.90;;;;;;5015808;28;20569;-42
2021/05/11 16:26:29;;;;;;;2.97;2.20;;;19.70;63.90;;;;;;5001483;28;20671;-44
2021/05/11 16:28:55;;;;;;;1.97;1.87;;;19.70;63.90;;;;;;5009192;28;20445;-42
2021/05/11 16:31:22;;;;;;;1.87;1.77;;;19.70;64.00;;;;;;5012012;28;20437;-42
2021/05/11 16:33:48;;;;;;;5.43;4.47;;;19.70;64.10;;;;;;5008795;28;20624;-42
2021/05/11 16:36:14;;;;;;;3.23;1.63;;;19.70;64.20;;;;;;5009217;28;20461;-42
2021/05/11 16:38:40;;;;;;;2.00;1.60;;;19.50;64.20;;;;;;5011110;28;20567;-42
2021/05/11 16:41:06;;;;;;;2.53;2.10;;;19.50;64.30;;;;;;5010784;28;20523;-42
2021/05/11 16:43:32;;;;;;;2.13;1.80;;;19.50;64.30;;;;;;5007017;28;20757;-42
2021/05/11 16:46:04;;;;;;;1.87;1.70;;;19.60;64.40;;;;;;5016642;28;20527;-42
2021/05/11 16:48:34;;;;;;;1.70;1.60;;;19.70;64.10;;;;;;5008471;28;20444;-42
2021/05/11 16:51:00;;;;;;;2.93;1.60;;;19.70;63.90;;;;;;5011056;28;20476;-42
2021/05/11 16:53:26;;;;;;;1.97;1.63;;;19.50;63.60;;;;;;5011185;28;21010;-41
2021/05/11 16:55:52;;;;;;;1.90;1.80;;;19.50;63.90;;;;;;5003042;28;20467;-42
2021/05/11 16:58:17;;;;;;;1.90;1.70;;;19.50;64.00;;;;;;5017889;28;21018;-42
2021/05/11 17:00:44;;;;;;;2.47;1.67;;;19.50;64.30;;;;;;5012576;28;20321;-42
2021/05/11 17:03:10;;;;;;;4.47;1.77;;;19.60;64.20;;;;;;5003237;28;20210;-42
2021/05/11 17:05:36;;;;;;;7.03;1.60;;;19.60;64.20;;;;;;5006487;28;20489;-42
2021/05/11 17:08:03;;;;;;;2.10;1.50;;;19.70;63.90;;;;;;5012295;28;20213;-41
2021/05/11 17:10:31;;;;;;;1.50;1.40;;;19.70;63.70;;;;;;5002023;28;20476;-41
2021/05/11 17:12:58;;;;;;;1.97;1.37;;;19.80;63.50;;;;;;4998604;28;20489;-41